Volney, New York
Current Conditions -  °F | °C
As of 3:54 AM on Monday 20 Oct 2014 (Local Time) from KFZY Reporting Station
Broken Clouds Broken Clouds  
Wind Chill: 33°   Ceiling: 12000
Heat Index: 38°   Visibility: 10mi
Dew Point: 33°   Wind: 6mph
Humidity: 83%   Direction: 190°S
Pressure: 30"   Gusts: NA
Location:  43.3608°N, 76.3536°W
Report Text: KFZY 200754Z AUTO 19005KT 10SM BKN120 03/01 A3000 RMK AO2 SLP161 T00330006
Loading
Personal Weather Stations






























Interactive Weather Map
Tropical Storm Tracking
New forecast layout! Learn more

10-Day Weather Forecast

Advertisements
Track Severe Weather on mobile